createdAt,value
2022-07-31T00:02:08.435Z,1.98
2022-07-31T00:04:35.652Z,1.75
2022-07-31T00:07:03.435Z,2.55
2022-07-31T00:09:52.265Z,1.80
2022-07-31T00:12:18.202Z,2.22
2022-07-31T00:14:45.559Z,2.22
2022-07-31T00:17:12.930Z,1.92
2022-07-31T00:19:40.782Z,3.33
2022-07-31T00:22:08.140Z,1.98
2022-07-31T00:24:35.378Z,1.70
2022-07-31T00:27:03.190Z,2.08
2022-07-31T00:29:30.776Z,1.80
2022-07-31T00:31:58.222Z,1.70
2022-07-31T00:34:25.493Z,1.63
2022-07-31T00:36:52.715Z,1.98
2022-07-31T00:39:20.335Z,2.08
2022-07-31T00:41:47.791Z,1.73
2022-07-31T00:44:15.755Z,2.17
2022-07-31T00:46:45.717Z,2.13
2022-07-31T00:49:13.048Z,2.25
2022-07-31T00:51:40.361Z,1.73
2022-07-31T00:54:08.362Z,2.15
2022-07-31T00:56:35.621Z,2.15
2022-07-31T00:59:02.861Z,2.67
2022-07-31T01:01:30.976Z,2.30
2022-07-31T01:03:58.496Z,2.38
2022-07-31T01:06:25.739Z,2.20
2022-07-31T01:08:53.009Z,1.73
2022-07-31T01:11:20.350Z,2.33
2022-07-31T01:13:47.658Z,1.85
2022-07-31T01:16:14.880Z,1.85
2022-07-31T01:18:42.462Z,2.05
2022-07-31T01:21:09.797Z,1.88
2022-07-31T01:23:37.313Z,2.15
2022-07-31T01:26:22.982Z,1.60
2022-07-31T01:29:02.680Z,1.65
2022-07-31T01:31:30.112Z,1.60
2022-07-31T01:33:59.308Z,2.10
2022-07-31T01:36:26.602Z,1.98
2022-07-31T01:38:53.948Z,1.90
2022-07-31T01:41:21.299Z,1.58
2022-07-31T01:43:48.578Z,1.98
2022-07-31T01:46:16.014Z,2.70
2022-07-31T01:48:43.294Z,3.20
2022-07-31T01:51:11.555Z,2.25
2022-07-31T01:53:39.223Z,1.60
2022-07-31T01:56:06.542Z,1.73
2022-07-31T01:58:35.508Z,1.85
2022-07-31T02:01:08.293Z,2.03
2022-07-31T02:03:43.976Z,2.13
2022-07-31T02:06:14.867Z,2.35
2022-07-31T02:08:42.272Z,2.03
2022-07-31T02:11:09.903Z,1.50
2022-07-31T02:13:37.175Z,1.77
2022-07-31T02:16:04.921Z,1.75
2022-07-31T02:18:33.322Z,2.10
2022-07-31T02:21:21.485Z,1.90
2022-07-31T02:23:48.724Z,1.80
2022-07-31T02:26:15.973Z,2.00
2022-07-31T02:28:43.355Z,1.90
2022-07-31T02:31:10.620Z,2.08
2022-07-31T02:33:37.876Z,2.22
2022-07-31T02:36:05.369Z,1.92
2022-07-31T02:38:33.631Z,1.55
2022-07-31T02:41:01.985Z,2.22
2022-07-31T02:43:29.653Z,2.13
2022-07-31T02:45:58.731Z,1.70
2022-07-31T02:48:26.206Z,2.47
2022-07-31T02:50:55.959Z,2.30
2022-07-31T02:53:23.302Z,2.03
2022-07-31T02:55:53.676Z,2.17
2022-07-31T02:58:21.283Z,2.28
2022-07-31T03:00:48.805Z,1.98
2022-07-31T03:03:17.736Z,1.85
2022-07-31T03:05:45.267Z,2.10
2022-07-31T03:08:13.516Z,2.50
2022-07-31T03:10:43.641Z,2.25
2022-07-31T03:13:11.424Z,2.42
2022-07-31T03:15:39.393Z,2.55
2022-07-31T03:18:11.158Z,1.92
2022-07-31T03:20:40.934Z,2.30
2022-07-31T03:23:09.523Z,2.88
2022-07-31T03:25:45.043Z,2.83
2022-07-31T03:28:12.294Z,2.60
2022-07-31T03:30:39.505Z,2.47
2022-07-31T03:33:06.796Z,2.33
2022-07-31T03:35:39.086Z,2.10
2022-07-31T03:38:38.954Z,2.45
2022-07-31T03:40:57.259Z,2.08
2022-07-31T03:43:24.538Z,1.73
2022-07-31T03:45:52.244Z,2.13
2022-07-31T03:48:19.480Z,2.38
2022-07-31T03:50:46.879Z,1.70
2022-07-31T03:53:14.616Z,2.13
2022-07-31T03:55:44.735Z,2.47
2022-07-31T03:58:12.151Z,2.50
2022-07-31T04:00:39.835Z,2.45
2022-07-31T04:03:08.021Z,2.08
2022-07-31T04:05:43.894Z,3.28
2022-07-31T04:08:11.342Z,2.55
2022-07-31T04:10:38.685Z,2.58
2022-07-31T04:13:07.873Z,2.25
2022-07-31T04:15:35.207Z,2.80
2022-07-31T04:18:02.483Z,1.80
2022-07-31T04:20:35.543Z,2.30
2022-07-31T04:23:04.069Z,2.25
2022-07-31T04:25:53.204Z,2.22
2022-07-31T04:28:37.696Z,2.17
2022-07-31T04:31:05.006Z,2.15
2022-07-31T04:33:35.907Z,2.67
2022-07-31T04:36:29.282Z,2.53
2022-07-31T04:38:59.394Z,2.10
2022-07-31T04:41:26.660Z,1.83
2022-07-31T04:43:53.938Z,2.40
2022-07-31T04:46:21.456Z,2.63
2022-07-31T04:48:49.142Z,2.70
2022-07-31T04:51:17.165Z,2.30
2022-07-31T04:53:44.592Z,1.98
2022-07-31T04:56:30.791Z,2.83
2022-07-31T04:58:58.369Z,2.67
2022-07-31T05:01:25.722Z,2.28
2022-07-31T05:03:53.088Z,2.20
2022-07-31T05:06:20.541Z,2.72
2022-07-31T05:08:47.798Z,2.67
2022-07-31T05:11:24.387Z,2.20
2022-07-31T05:13:51.731Z,2.33
2022-07-31T05:16:18.965Z,2.50
2022-07-31T05:18:46.374Z,2.53
2022-07-31T05:21:33.568Z,2.20
2022-07-31T05:24:22.518Z,2.22
2022-07-31T05:27:05.228Z,2.10
2022-07-31T05:29:32.681Z,2.10
2022-07-31T05:32:10.016Z,2.10
2022-07-31T05:34:38.005Z,2.72
2022-07-31T05:37:05.487Z,2.22
2022-07-31T05:39:35.953Z,2.58
2022-07-31T05:42:21.615Z,2.20
2022-07-31T05:44:54.486Z,2.33
2022-07-31T05:47:21.848Z,1.95
2022-07-31T05:49:49.660Z,2.47
2022-07-31T05:52:17.047Z,2.30
2022-07-31T05:54:45.995Z,2.00
2022-07-31T05:57:33.465Z,1.65
2022-07-31T06:00:03.825Z,2.17
2022-07-31T06:02:38.988Z,2.10
2022-07-31T06:05:29.635Z,3.08
2022-07-31T06:07:57.311Z,1.92
2022-07-31T06:10:27.878Z,2.05
2022-07-31T06:12:55.311Z,2.03
2022-07-31T06:15:22.631Z,1.95
2022-07-31T06:17:50.194Z,1.77
2022-07-31T06:20:29.154Z,2.40
2022-07-31T06:22:56.469Z,1.98
2022-07-31T06:25:30.210Z,2.38
2022-07-31T06:28:07.020Z,1.90
2022-07-31T06:30:37.915Z,2.30
2022-07-31T06:33:08.403Z,2.25
2022-07-31T06:35:37.205Z,2.35
2022-07-31T06:38:24.927Z,2.10
2022-07-31T06:41:39.921Z,2.00
2022-07-31T06:44:25.576Z,2.20
2022-07-31T06:47:13.974Z,2.13
2022-07-31T06:49:55.637Z,1.90
2022-07-31T06:52:26.777Z,1.77
2022-07-31T06:54:55.028Z,1.92
2022-07-31T06:57:22.251Z,1.55
2022-07-31T06:59:50.210Z,2.13
2022-07-31T07:02:17.482Z,1.60
2022-07-31T07:05:00.774Z,1.70
2022-07-31T07:07:32.316Z,1.70
2022-07-31T07:10:01.561Z,2.45
2022-07-31T07:12:51.855Z,1.50
2022-07-31T07:15:21.611Z,1.80
2022-07-31T07:17:48.897Z,1.80
2022-07-31T07:20:21.456Z,2.17
2022-07-31T07:22:48.712Z,2.50
2022-07-31T07:25:29.469Z,2.28
2022-07-31T07:27:59.026Z,1.90
2022-07-31T07:30:28.618Z,1.70
2022-07-31T07:32:59.815Z,1.90
2022-07-31T07:35:32.031Z,1.77
2022-07-31T07:38:03.054Z,1.42
2022-07-31T07:40:31.241Z,2.03
2022-07-31T07:43:02.825Z,1.75
2022-07-31T07:45:31.036Z,1.63
2022-07-31T07:48:06.249Z,1.58
2022-07-31T07:50:50.743Z,1.50
2022-07-31T07:53:29.368Z,1.73
2022-07-31T07:56:15.155Z,1.63
2022-07-31T07:59:14.906Z,1.45
2022-07-31T08:02:01.576Z,1.58
2022-07-31T08:04:32.620Z,1.55
2022-07-31T08:06:59.891Z,1.40
2022-07-31T08:09:33.558Z,1.48
2022-07-31T08:12:19.140Z,1.75
2022-07-31T08:15:04.900Z,1.63
2022-07-31T08:17:50.641Z,1.90
2022-07-31T08:20:18.102Z,1.40
2022-07-31T08:22:45.393Z,1.65
2022-07-31T08:25:15.126Z,1.02
2022-07-31T08:27:47.831Z,1.50
2022-07-31T08:30:15.789Z,1.40
2022-07-31T08:32:43.159Z,1.30
2022-07-31T08:35:28.749Z,1.50
2022-07-31T08:38:03.272Z,1.52
2022-07-31T08:40:42.985Z,1.50
2022-07-31T08:44:00.411Z,1.48
2022-07-31T08:45:58.372Z,1.30
2022-07-31T08:48:28.646Z,1.30
2022-07-31T08:50:55.988Z,1.92
2022-07-31T08:53:41.583Z,1.77
2022-07-31T08:56:15.427Z,1.30
2022-07-31T08:58:42.726Z,1.40
2022-07-31T09:01:10.122Z,1.70
2022-07-31T09:03:37.450Z,1.45
2022-07-31T09:06:06.168Z,1.40
2022-07-31T09:08:34.575Z,1.30
2022-07-31T09:11:02.284Z,1.48
2022-07-31T09:13:30.785Z,1.38
2022-07-31T09:16:00.349Z,1.83
2022-07-31T09:18:29.077Z,1.55
2022-07-31T09:21:03.425Z,1.70
2022-07-31T09:23:30.953Z,1.55
2022-07-31T09:25:59.026Z,2.25
2022-07-31T09:28:26.696Z,2.05
2022-07-31T09:30:56.581Z,1.55
2022-07-31T09:33:43.829Z,1.50
2022-07-31T09:36:32.980Z,1.83
2022-07-31T09:39:11.461Z,1.88
2022-07-31T09:42:16.396Z,1.20
2022-07-31T09:45:02.895Z,1.80
2022-07-31T09:47:31.003Z,1.67
2022-07-31T09:50:01.021Z,1.75
2022-07-31T09:52:28.439Z,1.40
2022-07-31T09:54:55.942Z,1.75
2022-07-31T09:57:28.770Z,1.92
2022-07-31T09:59:58.711Z,1.67
2022-07-31T10:02:27.293Z,1.67
2022-07-31T10:04:57.139Z,2.05
2022-07-31T10:07:32.521Z,1.58
2022-07-31T10:10:20.468Z,1.77
2022-07-31T10:13:10.939Z,1.70
2022-07-31T10:15:38.262Z,1.83
2022-07-31T10:18:44.597Z,1.60
2022-07-31T10:21:32.338Z,1.58
2022-07-31T10:24:08.027Z,1.65
2022-07-31T10:26:58.993Z,1.40
2022-07-31T10:29:22.821Z,1.52
2022-07-31T10:31:50.160Z,1.30
2022-07-31T10:34:17.449Z,1.80
2022-07-31T10:36:47.312Z,1.55
2022-07-31T10:39:31.067Z,1.63
2022-07-31T10:42:14.953Z,1.55
2022-07-31T10:44:42.288Z,1.50
2022-07-31T10:47:18.669Z,2.28
2022-07-31T10:50:04.346Z,1.48
2022-07-31T10:52:40.718Z,1.67
2022-07-31T10:55:16.882Z,1.30
2022-07-31T10:58:02.641Z,2.08
2022-07-31T11:00:50.167Z,2.00
2022-07-31T11:03:46.065Z,1.60
2022-07-31T11:06:42.718Z,1.55
2022-07-31T11:09:51.223Z,1.65
2022-07-31T11:12:37.471Z,1.80
2022-07-31T11:15:37.655Z,1.17
2022-07-31T11:18:27.572Z,1.45
2022-07-31T11:21:13.625Z,1.45
2022-07-31T11:23:56.410Z,1.65
2022-07-31T11:26:33.133Z,1.65
2022-07-31T11:29:59.847Z,1.13
2022-07-31T11:31:55.785Z,1.98
2022-07-31T11:34:23.039Z,1.75
2022-07-31T11:37:05.142Z,2.22
2022-07-31T11:39:37.247Z,1.95
2022-07-31T11:42:04.722Z,1.92
2022-07-31T11:44:34.815Z,1.60
2022-07-31T11:47:02.537Z,1.90
2022-07-31T11:49:47.819Z,1.60
2022-07-31T11:52:30.785Z,1.50
2022-07-31T11:55:08.516Z,1.65
2022-07-31T11:57:52.119Z,1.60
2022-07-31T12:00:26.711Z,1.88
2022-07-31T12:02:57.756Z,1.58
2022-07-31T12:05:39.074Z,1.40
2022-07-31T12:08:06.884Z,1.17
2022-07-31T12:10:34.394Z,1.55
2022-07-31T12:13:01.738Z,1.60
2022-07-31T12:15:29.120Z,1.25
2022-07-31T12:17:56.436Z,1.75
2022-07-31T12:20:34.895Z,1.10
2022-07-31T12:23:03.762Z,1.10
2022-07-31T12:25:31.002Z,1.10
2022-07-31T12:27:58.296Z,1.05
2022-07-31T12:30:29.883Z,0.90
2022-07-31T12:32:57.446Z,1.13
2022-07-31T12:35:24.761Z,0.65
2022-07-31T12:38:37.468Z,0.70
2022-07-31T12:40:56.343Z,0.88
2022-07-31T12:43:24.377Z,0.98
2022-07-31T12:45:51.629Z,0.70
2022-07-31T12:48:18.878Z,1.30
2022-07-31T12:50:46.488Z,0.80
2022-07-31T12:53:13.800Z,1.20
2022-07-31T12:55:41.102Z,1.38
2022-07-31T12:58:08.344Z,0.80
2022-07-31T13:00:39.635Z,0.60
2022-07-31T13:03:07.603Z,0.80
2022-07-31T13:05:34.873Z,0.68
2022-07-31T13:08:02.289Z,1.17
2022-07-31T13:10:32.200Z,0.70
2022-07-31T13:12:59.835Z,0.70
2022-07-31T13:15:30.296Z,0.55
2022-07-31T13:17:57.619Z,0.50
2022-07-31T13:20:25.005Z,0.65
2022-07-31T13:22:52.299Z,0.70
2022-07-31T13:25:20.330Z,0.40
2022-07-31T13:27:48.219Z,0.40
2022-07-31T13:30:16.267Z,0.50
2022-07-31T13:32:43.582Z,0.50
2022-07-31T13:35:25.970Z,0.50
2022-07-31T13:40:41.655Z,0.50
2022-07-31T13:43:08.913Z,0.45
2022-07-31T13:45:36.135Z,0.30
2022-07-31T13:48:08.696Z,0.40
2022-07-31T13:50:37.489Z,0.60
2022-07-31T13:53:04.851Z,0.50
2022-07-31T13:55:32.114Z,0.90
2022-07-31T13:58:01.103Z,0.68
2022-07-31T14:00:28.673Z,0.50
2022-07-31T14:02:55.978Z,0.50
2022-07-31T14:05:26.427Z,0.80
2022-07-31T14:07:54.739Z,0.95
2022-07-31T14:10:22.140Z,0.40
2022-07-31T14:12:49.451Z,0.40
2022-07-31T14:15:18.288Z,0.30
2022-07-31T14:17:45.754Z,0.60
2022-07-31T14:20:12.972Z,0.80
2022-07-31T14:22:40.314Z,0.45
2022-07-31T14:25:07.619Z,0.55
2022-07-31T14:27:34.879Z,0.40
2022-07-31T14:30:02.521Z,0.30
2022-07-31T14:32:30.842Z,0.40
2022-07-31T14:34:58.116Z,0.30
2022-07-31T14:37:25.607Z,0.20
2022-07-31T14:39:52.933Z,0.57
2022-07-31T14:42:22.030Z,0.50
2022-07-31T14:44:53.892Z,0.47
2022-07-31T14:47:21.123Z,0.40
2022-07-31T14:50:07.159Z,0.30
2022-07-31T14:52:35.666Z,0.30
2022-07-31T14:55:02.961Z,0.40
2022-07-31T14:57:31.632Z,0.30
2022-07-31T14:59:59.040Z,0.30
2022-07-31T15:02:26.304Z,0.30
2022-07-31T15:04:53.596Z,0.28
2022-07-31T15:07:39.730Z,0.40
2022-07-31T15:10:08.192Z,0.30
2022-07-31T15:12:35.483Z,0.57
2022-07-31T15:15:02.840Z,0.40
2022-07-31T15:17:30.134Z,0.50
2022-07-31T15:19:57.427Z,0.28
2022-07-31T15:22:24.781Z,0.30
2022-07-31T15:24:52.177Z,0.30
2022-07-31T15:27:20.918Z,0.40
2022-07-31T15:30:00.440Z,0.32
2022-07-31T15:32:34.704Z,0.90
2022-07-31T15:35:01.959Z,1.15
2022-07-31T15:37:30.319Z,1.40
2022-07-31T15:40:02.723Z,1.05
2022-07-31T15:42:30.868Z,1.05
2022-07-31T15:44:58.152Z,0.60
2022-07-31T15:47:25.425Z,0.43
2022-07-31T15:49:52.676Z,0.40
2022-07-31T15:52:20.108Z,0.40
2022-07-31T15:54:47.387Z,0.30
2022-07-31T15:57:19.010Z,0.30
2022-07-31T15:59:46.321Z,0.50
2022-07-31T16:02:13.604Z,0.38
2022-07-31T16:04:51.577Z,0.43
2022-07-31T16:08:34.106Z,0.50
2022-07-31T16:10:16.276Z,0.30
2022-07-31T16:12:45.111Z,0.50
2022-07-31T16:15:13.005Z,0.30
2022-07-31T16:17:40.630Z,0.30
2022-07-31T16:20:08.769Z,0.30
2022-07-31T16:22:36.113Z,0.40
2022-07-31T16:25:03.428Z,0.38
2022-07-31T16:27:30.722Z,0.28
2022-07-31T16:30:01.450Z,0.50
2022-07-31T16:32:29.812Z,0.30
2022-07-31T16:35:00.638Z,0.45
2022-07-31T16:37:52.113Z,0.35
2022-07-31T16:40:28.384Z,0.30
2022-07-31T16:42:56.979Z,0.30
2022-07-31T16:45:24.230Z,0.20
2022-07-31T16:47:52.219Z,0.30
2022-07-31T16:50:19.716Z,0.30
2022-07-31T16:52:51.311Z,0.25
2022-07-31T16:55:21.685Z,0.30
2022-07-31T16:58:11.289Z,0.30
2022-07-31T17:00:38.942Z,0.35
2022-07-31T17:03:06.417Z,0.38
2022-07-31T17:05:33.643Z,0.38
2022-07-31T17:08:00.910Z,0.60
2022-07-31T17:10:28.218Z,1.02
2022-07-31T17:12:56.559Z,0.50
2022-07-31T17:15:23.828Z,0.40
2022-07-31T17:17:51.157Z,0.40
2022-07-31T17:20:24.474Z,0.32
2022-07-31T17:22:54.665Z,0.43
2022-07-31T17:25:22.062Z,0.40
2022-07-31T17:27:49.350Z,0.50
2022-07-31T17:30:16.615Z,0.40
2022-07-31T17:32:43.944Z,0.30
2022-07-31T17:35:13.543Z,0.40
2022-07-31T17:37:41.076Z,0.32
2022-07-31T17:40:27.062Z,0.82
2022-07-31T17:42:56.823Z,1.33
2022-07-31T17:45:24.102Z,1.38
2022-07-31T17:48:02.563Z,1.33
2022-07-31T17:50:31.221Z,0.63
2022-07-31T17:52:58.475Z,0.90
2022-07-31T17:55:25.818Z,0.98
2022-07-31T17:57:53.125Z,1.65
2022-07-31T18:00:22.473Z,1.55
2022-07-31T18:02:54.727Z,1.50
2022-07-31T18:05:21.973Z,1.95
2022-07-31T18:07:51.832Z,3.40
2022-07-31T18:10:32.529Z,3.10
2022-07-31T18:13:06.648Z,1.88
2022-07-31T18:15:34.503Z,2.53
2022-07-31T18:18:03.262Z,1.52
2022-07-31T18:20:30.514Z,1.83
2022-07-31T18:22:57.797Z,1.77
2022-07-31T18:25:25.201Z,1.73
2022-07-31T18:27:54.175Z,1.95
2022-07-31T18:30:21.457Z,1.77
2022-07-31T18:32:48.776Z,2.00
2022-07-31T18:35:16.025Z,1.80
2022-07-31T18:37:43.335Z,1.95
2022-07-31T18:40:10.588Z,1.30
2022-07-31T18:42:37.908Z,1.67
2022-07-31T18:45:06.590Z,1.70
2022-07-31T18:47:34.875Z,1.50
2022-07-31T18:50:58.184Z,1.30
2022-07-31T18:52:49.529Z,1.35
2022-07-31T18:55:17.963Z,1.23
2022-07-31T18:57:45.247Z,1.30
2022-07-31T19:00:12.564Z,1.40
2022-07-31T19:02:39.906Z,1.30
2022-07-31T19:05:07.623Z,1.50
2022-07-31T19:07:41.043Z,1.73
2022-07-31T19:10:08.711Z,1.38
2022-07-31T19:12:36.094Z,1.08
2022-07-31T19:15:04.698Z,1.02
2022-07-31T19:17:44.414Z,1.30
2022-07-31T19:20:15.953Z,1.40
2022-07-31T19:23:00.149Z,1.55
2022-07-31T19:25:27.582Z,1.08
2022-07-31T19:27:54.893Z,1.00
2022-07-31T19:30:22.952Z,1.23
2022-07-31T19:32:51.188Z,1.65
2022-07-31T19:35:18.397Z,1.40
2022-07-31T19:37:45.853Z,1.30
2022-07-31T19:40:15.861Z,1.48
2022-07-31T19:42:44.338Z,1.00
2022-07-31T19:45:12.625Z,1.13
2022-07-31T19:47:41.216Z,1.17
2022-07-31T19:50:08.476Z,1.17
2022-07-31T19:52:38.173Z,1.27
2022-07-31T19:55:05.450Z,1.20
2022-07-31T19:57:32.772Z,1.00
2022-07-31T20:00:00.015Z,1.38
2022-07-31T20:02:27.757Z,1.02
2022-07-31T20:04:56.367Z,1.10
2022-07-31T20:07:23.727Z,1.15
2022-07-31T20:09:51.007Z,1.00
2022-07-31T20:12:18.312Z,1.20
2022-07-31T20:14:46.995Z,1.30
2022-07-31T20:17:15.433Z,1.15
2022-07-31T20:20:12.631Z,1.13
2022-07-31T20:22:31.604Z,0.95
2022-07-31T20:24:59.881Z,1.27
2022-07-31T20:27:31.440Z,1.95
2022-07-31T20:30:02.928Z,1.20
2022-07-31T20:32:33.216Z,1.30
2022-07-31T20:35:01.503Z,1.50
2022-07-31T20:37:28.930Z,1.30
2022-07-31T20:39:56.216Z,1.42
2022-07-31T20:42:23.651Z,1.23
2022-07-31T20:44:50.965Z,1.45
2022-07-31T20:47:21.601Z,1.25
2022-07-31T20:49:51.989Z,1.38
2022-07-31T20:52:20.185Z,1.85
2022-07-31T20:54:47.520Z,1.27
2022-07-31T20:57:15.803Z,1.40
2022-07-31T20:59:53.695Z,1.30
2022-07-31T21:02:21.254Z,1.40
2022-07-31T21:04:50.063Z,1.30
2022-07-31T21:07:19.325Z,1.20
2022-07-31T21:09:46.708Z,1.50
2022-07-31T21:12:14.031Z,1.63
2022-07-31T21:14:41.246Z,1.20
2022-07-31T21:17:08.619Z,1.48
2022-07-31T21:19:35.893Z,1.25
2022-07-31T21:22:03.384Z,1.60
2022-07-31T21:24:30.952Z,1.20
2022-07-31T21:26:58.309Z,1.27
2022-07-31T21:29:25.668Z,1.42
2022-07-31T21:31:52.981Z,1.50
2022-07-31T21:34:20.219Z,1.52
2022-07-31T21:36:47.582Z,1.65
2022-07-31T21:39:19.039Z,1.55
2022-07-31T21:41:46.606Z,1.60
2022-07-31T21:44:13.822Z,1.40
2022-07-31T21:46:46.141Z,1.70
2022-07-31T21:49:20.351Z,1.65
2022-07-31T21:51:47.755Z,1.35
2022-07-31T21:54:16.522Z,1.67
2022-07-31T21:56:43.841Z,1.63
2022-07-31T21:59:12.922Z,1.50
2022-07-31T22:01:40.338Z,1.70
2022-07-31T22:04:29.918Z,1.50
2022-07-31T22:07:21.082Z,1.60
2022-07-31T22:09:48.469Z,1.90
2022-07-31T22:12:17.011Z,1.60
2022-07-31T22:14:44.386Z,1.60
2022-07-31T22:17:13.083Z,1.55
2022-07-31T22:19:44.408Z,1.70
2022-07-31T22:22:14.831Z,1.90
2022-07-31T22:24:42.136Z,1.55
2022-07-31T22:27:28.389Z,1.90
2022-07-31T22:29:55.770Z,1.75
2022-07-31T22:32:23.042Z,1.60
2022-07-31T22:34:50.432Z,1.70
2022-07-31T22:37:17.646Z,2.08
2022-07-31T22:39:44.996Z,2.35
2022-07-31T22:42:12.265Z,2.03
2022-07-31T22:44:39.555Z,2.10
2022-07-31T22:47:06.811Z,2.00
2022-07-31T22:49:34.183Z,1.65
2022-07-31T22:52:01.653Z,2.20
2022-07-31T22:54:29.069Z,1.80
2022-07-31T22:56:56.359Z,2.05
2022-07-31T22:59:23.658Z,2.30
2022-07-31T23:01:50.970Z,2.03
2022-07-31T23:04:18.386Z,2.65
2022-07-31T23:06:45.701Z,1.95
2022-07-31T23:09:12.982Z,1.92
2022-07-31T23:11:40.352Z,2.13
2022-07-31T23:14:07.670Z,2.25
2022-07-31T23:16:34.911Z,2.10
2022-07-31T23:19:02.177Z,2.10
2022-07-31T23:21:29.452Z,2.58
2022-07-31T23:23:56.889Z,2.45
2022-07-31T23:26:24.353Z,2.38
2022-07-31T23:28:51.696Z,2.15
2022-07-31T23:31:18.979Z,1.88
2022-07-31T23:33:46.332Z,2.13
2022-07-31T23:36:13.606Z,2.30
2022-07-31T23:38:40.964Z,2.20
2022-07-31T23:41:08.235Z,2.10
2022-07-31T23:43:35.505Z,2.47
2022-07-31T23:46:02.810Z,2.67
2022-07-31T23:48:30.763Z,2.63
2022-07-31T23:50:58.326Z,2.08
2022-07-31T23:53:25.634Z,2.28
2022-07-31T23:55:52.934Z,2.10
2022-07-31T23:58:20.166Z,2.60
